Ed's Weather Station

Ed's Weather Station
Located south of Fulton, MO
Lat. 38.75234 N
Lon. 91.96758 W
Elevation 787 ft

GR3 Radar

Current 24 Hours Yesterday Last 48 Hours Last 72 Hours Last 30 Days Yearly Rainfall Yearly Temp Trends Monthly Wind Direction Last 30 Days Temperature Solar Data
Highs and Lows Trends Sun & Moon Rise\Set Times Moon\Solar Info
Local Weather Advisories Area Forecast Discussion Hazardous Weather Outlook U.S. Severe Weather Storm Prediction Center
All Time Records Monthly Records Yearly Records
Weather Gauges MW Weather Network
Local Area Conditions Printable Weather Flyer MO River Information
About Ed's Weather Weather Station Status Weather Graphic Personal Weather Sites
Kansas City NEXRAD Radar Local/Regional Radar Satellite Images
Weather Underground Data Rain Detail Chart
NWS Forecast Details Ed's Forecast Details UV Forecast Pollen Forecast Space Weather
Member of the following organizations:





Local Links:
Callaway County Sheriff

Eds Weather Station - WU Station History
Station Historical Data
Daily Summary for February 13, 2018 Units:  English    Metric   Both
« Previous Day
Next Day »
Daily Weekly Monthly Yearly Custom
  High: Low: Average:
Temperature: TemperatureF °F 20.7 °F 32.2 °F
Dew Point: DewpointF °F 17.2 °F 24.7 °F
Humidity: Humidity% 56% 75%
Wind Speed: WindSpeedMPHmph 0.0mph 2.9mph
Wind Gust: WindSpeedGustMPHmph - -
Wind- - SE
Pressure: PressureIn in 30.27 in -
Precipitation: 0.01 in    
Historical Graphs
 
 
Tabular Data for February 13, 2018
Time Temperature Dew Point Pressure Wind Wind Speed Wind Gust Humidity Rainfall Rate (Hourly) solar Conditions
TemperatureF °F DewpointF °F PressureIn in Calm     Humidity% HourlyPrecipIn in SolarRadiationWatts/m^2 W/m2 Conditions
00:00 22.8 °F 18.1 °F 30.62 in ENE 3.5 mph 3.5 mph 82% 0.00 in 0.0 W/m2 CLR
00:05 22.7 °F 18.3 °F 30.62 in NE 3.0 mph 3.0 mph 83% 0.00 in 0.0 W/m2 RA
00:10 22.7 °F 18.3 °F 30.61 in ENE 3.5 mph 3.5 mph 83% 0.00 in 0.0 W/m2 RA
00:15 22.7 °F 18.3 °F 30.62 in ENE 3.5 mph 3.5 mph 83% 0.00 in 0.0 W/m2 CLR
00:20 22.6 °F 17.9 °F 30.62 in ENE 2.3 mph 2.3 mph 82% 0.00 in 0.0 W/m2 CLR
00:25 22.5 °F 18.1 °F 30.62 in ENE 2.3 mph 2.3 mph 83% 0.00 in 0.0 W/m2 CLR
00:30 22.4 °F 18.0 °F 30.62 in East 3.5 mph   83% 0.00 in 0.0 W/m2 CLR
00:35 22.2 °F 17.8 °F 30.61 in East 2.3 mph 2.3 mph 83% 0.00 in 0.0 W/m2 CLR
00:40 22.1 °F 17.7 °F 30.62 in East 2.3 mph 2.3 mph 83% 0.00 in 0.0 W/m2 CLR
00:45 22.0 °F 17.6 °F 30.61 in East 2.3 mph 2.3 mph 83% 0.00 in 0.0 W/m2 CLR
00:50 21.8 °F 17.7 °F 30.61 in East 1.2 mph 1.2 mph 84% 0.00 in 0.0 W/m2 CLR
00:55 21.6 °F 17.5 °F 30.61 in Calm     84% 0.00 in 0.0 W/m2 CLR
01:00 21.5 °F 17.4 °F 30.61 in East 1.2 mph 1.2 mph 84% 0.00 in 0.0 W/m2 CLR
01:05 21.3 °F 17.2 °F 30.60 in NE 2.3 mph 2.3 mph 84% 0.00 in 0.0 W/m2 CLR
01:10 21.2 °F 17.4 °F 30.60 in ENE 2.3 mph 2.3 mph 85% 0.00 in 0.0 W/m2 CLR
01:15 21.1 °F 17.3 °F 30.59 in ENE 2.3 mph 2.3 mph 85% 0.00 in 0.0 W/m2 CLR
01:20 21.1 °F 17.3 °F 30.59 in ENE 3.5 mph 3.5 mph 85% 0.00 in 0.0 W/m2 CLR
01:25 21.1 °F 17.3 °F 30.60 in ENE 1.2 mph 1.2 mph 85% 0.00 in 0.0 W/m2 CLR
01:30 21.2 °F 17.4 °F 30.60 in ENE 1.2 mph 1.2 mph 85% 0.00 in 0.0 W/m2 CLR
01:35 21.2 °F 17.4 °F 30.60 in ENE 1.2 mph 1.2 mph 85% 0.00 in 0.0 W/m2 CLR
01:40 21.2 °F 17.4 °F 30.60 in ENE 1.2 mph 1.2 mph 85% 0.00 in 0.0 W/m2 CLR
01:45 21.2 °F 17.4 °F 30.60 in NE 3.0 mph 3.0 mph 85% 0.00 in 0.0 W/m2 CLR
01:50 21.2 °F 17.7 °F 30.60 in ENE 3.5 mph 3.5 mph 86% 0.00 in 0.0 W/m2 CLR
01:55 21.1 °F 17.6 °F 30.59 in East 2.0 mph 2.0 mph 86% 0.00 in 0.0 W/m2 CLR
02:00 21.1 °F 17.6 °F 30.59 in ENE 3.5 mph   86% 0.00 in 0.0 W/m2 CLR
02:05 21.1 °F 17.6 °F 30.59 in NE 2.0 mph 2.0 mph 86% 0.00 in 0.0 W/m2 CLR
02:10 21.0 °F 17.5 °F 30.59 in Calm   0.1 mph 86% 0.00 in 0.0 W/m2 CLR
02:15 20.8 °F 17.3 °F 30.59 in ENE 2.3 mph   86% 0.00 in 0.0 W/m2 CLR
02:20 20.8 °F 17.3 °F 30.58 in ENE 1.2 mph   86% 0.00 in 0.0 W/m2 CLR
02:25 20.7 °F 17.2 °F 30.58 in East 2.3 mph 2.3 mph 86% 0.00 in 0.0 W/m2 CLR
02:30 20.9 °F 17.6 °F 30.58 in ENE 2.3 mph   87% 0.00 in 0.0 W/m2 CLR
02:35 21.1 °F 17.8 °F 30.58 in ENE 2.3 mph   87% 0.00 in 0.0 W/m2 CLR
02:40 21.2 °F 18.2 °F 30.59 in East 2.3 mph   88% 0.00 in 0.0 W/m2 CLR
02:45 21.4 °F 18.1 °F 30.58 in East 1.0 mph 3.0 mph 87% 0.00 in 0.0 W/m2 CLR
02:50 21.5 °F 18.2 °F 30.59 in East 1.0 mph 2.0 mph 87% 0.00 in 0.0 W/m2 CLR
02:55 21.7 °F 18.4 °F 30.59 in ENE 1.2 mph 1.2 mph 87% 0.00 in 0.0 W/m2 CLR
03:00 21.8 °F 18.5 °F 30.59 in Calm   0.2 mph 87% 0.00 in 0.0 W/m2 CLR
03:05 21.7 °F 18.2 °F 30.60 in ENE 1.2 mph 1.2 mph 86% 0.00 in 0.0 W/m2 SCT
03:10 21.7 °F 18.2 °F 30.60 in Calm     86% 0.00 in 0.0 W/m2 SCT
03:15 21.6 °F 18.3 °F 30.60 in Calm     87% 0.00 in 0.0 W/m2 FEW
03:20 21.5 °F 18.2 °F 30.59 in ENE 1.2 mph 1.2 mph 87% 0.00 in 0.0 W/m2 SCT
03:25 21.6 °F 18.3 °F 30.59 in Calm     87% 0.00 in 0.0 W/m2 SCT
03:30 21.6 °F 18.3 °F 30.59 in ENE 1.2 mph 1.2 mph 87% 0.00 in 0.0 W/m2 SCT
03:35 21.6 °F 18.3 °F 30.59 in NNE 3.5 mph 3.5 mph 87% 0.00 in 0.0 W/m2 SCT
03:40 21.8 °F 18.8 °F 30.59 in North 1.2 mph 1.2 mph 88% 0.00 in 0.0 W/m2 SCT
03:45 21.9 °F 18.9 °F 30.58 in NNE 2.3 mph 2.3 mph 88% 0.00 in 0.0 W/m2 SCT
03:50 22.1 °F 18.8 °F 30.58 in NNE 1.2 mph 1.2 mph 87% 0.00 in 0.0 W/m2 SCT
03:55 22.1 °F 18.8 °F 30.58 in NNE 2.3 mph 2.3 mph 87% 0.00 in 0.0 W/m2 SCT
04:00 22.1 °F 18.6 °F 30.57 in ENE 2.3 mph 2.3 mph 86% 0.00 in 0.0 W/m2 SCT
04:05 22.1 °F 18.8 °F 30.57 in ENE 2.3 mph 2.3 mph 87% 0.00 in 0.0 W/m2 SCT
04:10 22.1 °F 18.8 °F 30.57 in ENE 1.2 mph 1.2 mph 87% 0.00 in 0.0 W/m2 SCT
04:15 22.2 °F 18.9 °F 30.57 in East 2.0 mph 2.0 mph 87% 0.00 in 0.0 W/m2 SCT
04:20 22.3 °F 19.0 °F 30.57 in ENE 1.2 mph 1.2 mph 87% 0.00 in 0.0 W/m2 SCT
04:25 22.4 °F 19.1 °F 30.56 in ENE 2.3 mph 2.3 mph 87% 0.00 in 0.0 W/m2 SCT
04:30 22.5 °F 19.2 °F 30.57 in ENE 1.2 mph 1.2 mph 87% 0.00 in 0.0 W/m2 SCT
04:35 22.6 °F 19.3 °F 30.57 in Calm     87% 0.00 in 0.0 W/m2 SCT
04:40 22.6 °F 19.3 °F 30.57 in NE 2.3 mph 2.3 mph 87% 0.00 in 0.0 W/m2 SCT
04:45 22.6 °F 19.3 °F 30.57 in NE 2.3 mph 2.3 mph 87% 0.00 in 0.0 W/m2 SCT
04:50 22.6 °F 19.3 °F 30.56 in NE 2.0 mph 2.0 mph 87% 0.00 in 0.0 W/m2 SCT
04:55 22.7 °F 19.4 °F 30.55 in ENE 2.3 mph 2.3 mph 87% 0.00 in 0.0 W/m2 SCT
05:00 22.7 °F 19.4 °F 30.55 in NE 3.5 mph 3.5 mph 87% 0.00 in 0.0 W/m2 SCT
05:05 22.7 °F 19.1 °F 30.55 in NE 3.5 mph 3.5 mph 86% 0.00 in 0.0 W/m2 SCT
05:10 22.6 °F 19.0 °F 30.55 in NE 3.5 mph 3.5 mph 86% 0.00 in 0.0 W/m2 SCT
05:15 22.4 °F 18.8 °F 30.56 in NE 2.3 mph 2.3 mph 86% 0.00 in 0.0 W/m2 SCT
05:20 22.3 °F 19.0 °F 30.56 in Calm     87% 0.00 in 0.0 W/m2 SCT
05:25 22.3 °F 19.0 °F 30.56 in NE 2.3 mph 2.3 mph 87% 0.00 in 0.0 W/m2 SCT
05:30 22.2 °F 18.9 °F 30.56 in Calm     87% 0.00 in 0.0 W/m2 SCT
05:35 22.2 °F 18.9 °F 30.56 in Calm     87% 0.00 in 0.0 W/m2 SCT
05:40 22.0 °F 18.7 °F 30.56 in NE 2.3 mph 2.3 mph 87% 0.00 in 0.0 W/m2 SCT
05:45 21.8 °F 18.5 °F 30.56 in NNE 1.2 mph 1.2 mph 87% 0.00 in 0.0 W/m2 SCT
05:50 21.7 °F 18.4 °F 30.56 in NNE 3.5 mph 3.5 mph 87% 0.00 in 0.0 W/m2 SCT
05:55 21.7 °F 18.7 °F 30.56 in NNE 3.5 mph 3.5 mph 88% 0.00 in 0.0 W/m2 SCT
06:00 21.6 °F 18.6 °F 30.56 in NNE 2.3 mph 2.3 mph 88% 0.00 in 0.0 W/m2 SCT
06:05 21.7 °F 18.7 °F 30.56 in NNE 2.0 mph 2.0 mph 88% 0.00 in 0.0 W/m2 BKN
06:10 21.7 °F 18.7 °F 30.57 in NNE 3.5 mph 3.5 mph 88% 0.00 in 0.0 W/m2 BKN
06:15 21.8 °F 18.8 °F 30.56 in NNE 2.3 mph 2.3 mph 88% 0.00 in 0.0 W/m2 BKN
06:20 21.8 °F 18.8 °F 30.56 in NNE 1.2 mph 1.2 mph 88% 0.00 in 0.0 W/m2 BKN
06:25 21.8 °F 18.8 °F 30.56 in NNE 2.3 mph 2.3 mph 88% 0.00 in 0.0 W/m2 BKN
06:30 21.7 °F 18.7 °F 30.57 in NNE 1.2 mph   88% 0.00 in 0.0 W/m2 BKN
06:35 21.6 °F 18.6 °F 30.57 in Calm     88% 0.00 in 0.0 W/m2 BKN
06:40 21.5 °F 18.5 °F 30.57 in NNE 1.2 mph 1.2 mph 88% 0.00 in 0.0 W/m2 BKN
06:45 21.3 °F 18.3 °F 30.56 in NNE 1.2 mph 1.2 mph 88% 0.00 in 0.0 W/m2 BKN
06:50 21.2 °F 18.2 °F 30.56 in NNE 2.3 mph 2.3 mph 88% 0.00 in 0.0 W/m2 BKN
06:55 21.1 °F 18.1 °F 30.56 in NNE 1.2 mph 1.2 mph 88% 0.00 in 0.0 W/m2 BKN
07:00 21.0 °F 18.3 °F 30.56 in NNE 1.2 mph   89% 0.00 in 0.0 W/m2 BKN
07:05 20.9 °F 18.2 °F 30.57 in Calm     89% 0.00 in 0.0 W/m2 OVC
07:10 20.9 °F 18.2 °F 30.56 in NNE 2.3 mph 2.3 mph 89% 0.00 in 5.0 W/m2 OVC
07:15 20.9 °F 18.2 °F 30.57 in NE 1.2 mph 1.2 mph 89% 0.00 in 5.0 W/m2 OVC
07:20 20.9 °F 18.2 °F 30.57 in NE 2.3 mph 2.3 mph 89% 0.00 in 9.0 W/m2 OVC
07:25 20.8 °F 18.1 °F 30.57 in Calm     89% 0.00 in 11.0 W/m2 OVC
07:30 20.9 °F 18.4 °F 30.57 in NE 1.2 mph   90% 0.00 in 12.0 W/m2 OVC
07:35 20.9 °F 18.2 °F 30.57 in Calm     89% 0.00 in 18.0 W/m2 OVC
07:40 21.0 °F 18.5 °F 30.56 in Calm     90% 0.00 in 21.0 W/m2 OVC
07:45 21.2 °F 18.7 °F 30.57 in Calm     90% 0.00 in 25.0 W/m2 OVC
07:50 21.4 °F 18.9 °F 30.57 in Calm     90% 0.00 in 23.0 W/m2 OVC
07:55 21.6 °F 19.1 °F 30.58 in Calm     90% 0.00 in 19.0 W/m2 OVC
08:00 21.7 °F 19.2 °F 30.58 in Calm     90% 0.00 in 32.0 W/m2 OVC
08:05 22.0 °F 19.5 °F 30.58 in Calm     90% 0.00 in 51.0 W/m2 BKN
08:10 22.2 °F 19.7 °F 30.58 in Calm     90% 0.00 in 47.0 W/m2 BKN
08:15 22.5 °F 19.7 °F 30.58 in Calm     89% 0.00 in 49.0 W/m2 BKN
08:20 22.9 °F 20.1 °F 30.58 in Calm     89% 0.00 in 62.0 W/m2 BKN
08:25 23.3 °F 20.5 °F 30.57 in NE 2.3 mph 2.3 mph 89% 0.00 in 40.0 W/m2 BKN
08:30 23.9 °F 21.1 °F 30.58 in NE 1.2 mph 1.2 mph 89% 0.00 in 37.0 W/m2 BKN
08:35 24.2 °F 21.2 °F 30.57 in NE 1.0 mph   88% 0.00 in 49.0 W/m2 BKN
08:40 24.5 °F 21.5 °F 30.57 in NE 1.2 mph 1.2 mph 88% 0.00 in 49.0 W/m2 BKN
08:45 24.7 °F 21.7 °F 30.57 in NE 1.2 mph 1.2 mph 88% 0.00 in 42.0 W/m2 BKN
08:50 25.0 °F 21.7 °F 30.57 in East 2.3 mph 2.3 mph 87% 0.00 in 49.0 W/m2 BKN
08:55 25.4 °F 22.3 °F 30.57 in East 1.2 mph 1.2 mph 88% 0.00 in 49.0 W/m2 BKN
09:00 25.7 °F 22.6 °F 30.56 in Calm     88% 0.00 in 44.0 W/m2 -SN
09:05 26.1 °F 23.0 °F 30.56 in East 1.2 mph 1.2 mph 88% 0.00 in 125.0 W/m2 -SN
09:10 26.8 °F 23.7 °F 30.56 in ENE 1.2 mph 1.2 mph 88% 0.00 in 123.0 W/m2 -SN
09:15 27.6 °F 24.0 °F 30.55 in ENE 3.5 mph 3.5 mph 86% 0.00 in 51.0 W/m2 -SN
09:20 28.0 °F 23.8 °F 30.55 in East 6.9 mph 6.9 mph 84% 0.00 in 47.0 W/m2 -SN
09:25 28.4 °F 24.2 °F 30.55 in SSE 3.5 mph 3.5 mph 84% 0.00 in 60.0 W/m2 -SN
09:30 28.9 °F 24.4 °F 30.55 in ESE 2.3 mph 2.3 mph 83% 0.00 in 83.0 W/m2 -SN
09:35 29.5 °F 24.4 °F 30.55 in SW 2.3 mph 2.3 mph 81% 0.00 in 134.0 W/m2 -SN
09:40 30.0 °F 24.9 °F 30.55 in ENE 3.5 mph 3.5 mph 81% 0.00 in 204.0 W/m2 -SN
09:45 30.5 °F 25.1 °F 30.55 in ESE 2.3 mph 2.3 mph 80% 0.00 in 130.0 W/m2 -SN
09:50 31.0 °F 25.2 °F 30.55 in ENE 2.3 mph 2.3 mph 79% 0.00 in 260.0 W/m2 -SN
09:55 31.6 °F 25.8 °F 30.54 in SSE 3.5 mph 3.5 mph 79% 0.00 in 353.0 W/m2 -SN
10:00 32.4 °F 25.4 °F 30.54 in ESE 7.0 mph 7.0 mph 75% 0.00 in 292.0 W/m2 -SN
10:05 33.1 °F 25.7 °F 30.54 in SSW 3.5 mph 3.5 mph 74% 0.00 in 260.0 W/m2 SCT
10:10 33.8 °F 26.4 °F 30.53 in NE 3.5 mph 3.5 mph 74% 0.00 in 139.0 W/m2 SCT
10:15 34.2 °F 26.1 °F 30.53 in ESE 3.5 mph 3.5 mph 72% 0.00 in 399.0 W/m2 SCT
10:20 34.3 °F 25.2 °F 30.53 in SE 3.5 mph 3.5 mph 69% 0.00 in 174.0 W/m2 SCT
10:25 34.3 °F 25.5 °F 30.53 in SSE 3.5 mph 3.5 mph 70% 0.00 in 116.0 W/m2 SCT
10:30 34.4 °F 26.6 °F 30.52 in ENE 2.3 mph 2.3 mph 73% 0.00 in 156.0 W/m2 SCT
10:35 34.4 °F 25.6 °F 30.52 in South 5.8 mph 5.8 mph 70% 0.00 in 105.0 W/m2 SCT
10:40 34.7 °F 25.6 °F 30.52 in SE 5.0 mph 5.0 mph 69% 0.00 in 301.0 W/m2 SCT
10:45 35.0 °F 25.5 °F 30.51 in South 3.5 mph 3.5 mph 68% 0.00 in 107.0 W/m2 SCT
10:50 35.1 °F 25.9 °F 30.51 in SSW 2.3 mph 2.3 mph 69% 0.00 in 552.0 W/m2 SCT
10:55 36.1 °F 26.6 °F 30.51 in SSE 3.0 mph 3.0 mph 68% 0.00 in 536.0 W/m2 SCT
11:00 36.5 °F 26.6 °F 30.51 in South 4.6 mph 4.6 mph 67% 0.00 in 538.0 W/m2 FEW
11:05 36.9 °F 27.0 °F 30.50 in South 3.5 mph 3.5 mph 67% 0.00 in 513.0 W/m2 FEW
11:10 37.4 °F 27.1 °F 30.50 in South 2.3 mph 2.3 mph 66% 0.00 in 548.0 W/m2 FEW
11:15 37.9 °F 27.2 °F 30.49 in South 2.3 mph 2.3 mph 65% 0.00 in 554.0 W/m2 FEW
11:20 38.5 °F 27.4 °F 30.49 in South 4.6 mph 4.6 mph 64% 0.00 in 555.0 W/m2 FEW
11:25 38.7 °F 27.2 °F 30.48 in SSE 4.6 mph 4.6 mph 63% 0.00 in 613.0 W/m2 FEW
11:30 38.6 °F 26.7 °F 30.48 in SSE 5.8 mph 5.8 mph 62% 0.00 in 294.0 W/m2 FEW
11:35 38.8 °F 27.7 °F 30.48 in SSW 3.5 mph 3.5 mph 64% 0.00 in 624.0 W/m2 FEW
11:40 40.4 °F 28.0 °F 30.47 in SSW 3.5 mph 3.5 mph 61% 0.00 in 554.0 W/m2 FEW
11:45 40.7 °F 27.1 °F 30.47 in SSE 6.9 mph 6.9 mph 58% 0.00 in 529.0 W/m2 FEW
11:50 41.2 °F 27.9 °F 30.46 in South 6.0 mph 6.0 mph 59% 0.00 in 510.0 W/m2 FEW
11:55 41.0 °F 27.8 °F 30.46 in SSW 6.0 mph 6.0 mph 59% 0.00 in 494.0 W/m2 FEW
12:00 41.2 °F 27.5 °F 30.45 in South 6.9 mph 6.9 mph 58% 0.00 in 471.0 W/m2 OVC
12:05 41.6 °F 29.1 °F 30.45 in South 3.5 mph 3.5 mph 61% 0.00 in 534.0 W/m2 OVC
12:10 42.6 °F 28.0 °F 30.45 in SSW 3.0 mph 3.0 mph 56% 0.00 in 475.0 W/m2 OVC
12:15 41.8 °F 27.7 °F 30.44 in South 5.8 mph 5.8 mph 57% 0.00 in 146.0 W/m2 OVC
12:20 41.3 °F 27.2 °F 30.44 in SSW 5.8 mph 5.8 mph 57% 0.00 in 540.0 W/m2 OVC
12:25 41.0 °F 27.3 °F 30.44 in SSE 8.1 mph 8.1 mph 58% 0.00 in 148.0 W/m2 OVC
12:30 40.5 °F 27.3 °F 30.44 in South 6.9 mph 6.9 mph 59% 0.00 in 206.0 W/m2 OVC
12:35 40.6 °F 27.8 °F 30.43 in SSW 5.8 mph 5.8 mph 60% 0.00 in 190.0 W/m2 OVC
12:40 40.9 °F 28.1 °F 30.43 in South 3.5 mph 3.5 mph 60% 0.00 in 297.0 W/m2 OVC
12:45 41.6 °F 28.7 °F 30.42 in SE 3.5 mph 3.5 mph 60% 0.00 in 183.0 W/m2 OVC
12:50 41.3 °F 27.6 °F 30.42 in South 5.8 mph 5.8 mph 58% 0.00 in 181.0 W/m2 OVC
12:55 41.2 °F 27.9 °F 30.41 in SSW 6.9 mph 6.9 mph 59% 0.00 in 214.0 W/m2 OVC
13:00 41.5 °F 28.6 °F 30.41 in ESE 5.8 mph 5.8 mph 60% 0.00 in 185.0 W/m2 OVC
13:05 41.8 °F 28.1 °F 30.41 in South 3.5 mph 3.5 mph 58% 0.00 in 179.0 W/m2 OVC
13:10 42.0 °F 28.7 °F 30.41 in South 4.6 mph 4.6 mph 59% 0.00 in 176.0 W/m2 OVC
13:15 42.0 °F 28.7 °F 30.40 in SSW 3.5 mph 3.5 mph 59% 0.00 in 171.0 W/m2 OVC
13:20 42.3 °F 29.0 °F 30.40 in WSW 3.5 mph 3.5 mph 59% 0.00 in 158.0 W/m2 OVC
13:25 42.3 °F 29.0 °F 30.40 in SSE 8.1 mph 8.1 mph 59% 0.01 in 156.0 W/m2 RA
13:30 42.2 °F 28.9 °F 30.40 in SSW 3.5 mph 3.5 mph 59% 0.01 in 148.0 W/m2 RA
13:35 42.1 °F 28.8 °F 30.39 in South 4.6 mph 4.6 mph 59% 0.01 in 137.0 W/m2 OVC
13:40 42.1 °F 28.8 °F 30.39 in SSE 5.0 mph 5.0 mph 59% 0.01 in 135.0 W/m2 OVC
13:45 41.9 °F 29.0 °F 30.39 in SSW 4.6 mph 4.6 mph 60% 0.01 in 121.0 W/m2 OVC
13:50 41.9 °F 29.0 °F 30.38 in South 6.9 mph 6.9 mph 60% 0.01 in 134.0 W/m2 OVC
13:55 41.9 °F 29.4 °F 30.39 in South 5.8 mph 5.8 mph 61% 0.01 in 192.0 W/m2 OVC
14:00 42.2 °F 28.9 °F 30.38 in SE 9.2 mph 9.2 mph 59% 0.01 in 246.0 W/m2 OVC
14:05 42.7 °F 29.8 °F 30.36 in SE 6.9 mph 6.9 mph 60% 0.01 in 241.0 W/m2 OVC
14:10 43.0 °F 29.2 °F 30.38 in South 10.4 mph 10.4 mph 58% 0.01 in 207.0 W/m2 OVC
14:15 42.9 °F 29.1 °F 30.38 in SW 10.4 mph 10.4 mph 58% 0.01 in 91.0 W/m2 OVC
14:20 42.6 °F 29.3 °F 30.38 in South 11.5 mph 11.5 mph 59% 0.01 in 107.0 W/m2 OVC
14:26 42.3 °F 29.0 °F 30.38 in SSW 8.1 mph 8.1 mph 59% 0.00 in 84.0 W/m2 OVC
14:31 42.2 °F 28.9 °F 30.38 in South 10.4 mph 10.4 mph 59% 0.00 in 88.0 W/m2 OVC
14:36 42.2 °F 29.3 °F 30.38 in SSW 3.5 mph 4.2 mph 60% 0.00 in 83.0 W/m2 OVC
14:41 42.3 °F 29.4 °F 30.37 in South 6.9 mph 6.9 mph 60% 0.00 in 77.0 W/m2 OVC
14:46 42.2 °F 28.9 °F 30.37 in SSW 8.1 mph 8.1 mph 59% 0.00 in 76.0 W/m2 OVC
14:51 42.2 °F 28.9 °F 30.37 in SSW 9.2 mph 9.2 mph 59% 0.00 in 67.0 W/m2 OVC
14:56 42.2 °F 28.9 °F 30.37 in South 4.6 mph 4.6 mph 59% 0.00 in 56.0 W/m2 OVC
15:01 42.3 °F 29.8 °F 30.37 in South 3.5 mph 3.5 mph 61% 0.00 in 67.0 W/m2 SCT
15:06 42.3 °F 29.0 °F 30.36 in SE 6.9 mph 6.9 mph 59% 0.00 in 67.0 W/m2 SCT
15:11 42.5 °F 29.6 °F 30.35 in SSW 3.5 mph 3.5 mph 60% 0.00 in 127.0 W/m2 SCT
15:16 43.1 °F 30.1 °F 30.35 in SSW 3.5 mph 3.5 mph 60% 0.00 in 121.0 W/m2 SCT
15:21 43.7 °F 30.3 °F 30.35 in South 4.6 mph 4.6 mph 59% 0.00 in 83.0 W/m2 SCT
15:26 44.0 °F 30.6 °F 30.34 in SSW 3.5 mph 3.5 mph 59% 0.00 in 93.0 W/m2 SCT
15:31 44.2 °F 29.9 °F 30.34 in South 11.5 mph 11.5 mph 57% 0.00 in 51.0 W/m2 SCT
15:36 43.8 °F 29.1 °F 30.35 in South 8.1 mph 8.1 mph 56% 0.00 in 49.0 W/m2 SCT
15:41 43.6 °F 29.4 °F 30.34 in South 13.8 mph 13.8 mph 57% 0.00 in 53.0 W/m2 SCT
15:46 43.4 °F 29.2 °F 30.34 in SSW 9.2 mph 9.2 mph 57% 0.00 in 105.0 W/m2 SCT
15:51 43.8 °F 29.5 °F 30.34 in SE 10.4 mph 10.4 mph 57% 0.00 in 86.0 W/m2 SCT
15:56 43.8 °F 29.5 °F 30.34 in SSW 10.4 mph 10.4 mph 57% 0.00 in 104.0 W/m2 SCT
16:01 44.1 °F 29.8 °F 30.34 in SSW 3.5 mph 3.5 mph 57% 0.00 in 104.0 W/m2 CLR
16:06 44.3 °F 29.6 °F 30.34 in SSE 8.1 mph 8.1 mph 56% 0.00 in 63.0 W/m2 CLR
16:11 44.2 °F 29.5 °F 30.33 in SSW 6.9 mph 6.9 mph 56% 0.00 in 35.0 W/m2 CLR
16:16 44.1 °F 29.4 °F 30.33 in SSW 8.1 mph 8.1 mph 56% 0.00 in 65.0 W/m2 CLR
16:21 43.9 °F 29.2 °F 30.32 in South 3.5 mph 3.5 mph 56% 0.00 in 21.0 W/m2 CLR
16:26 44.0 °F 29.7 °F 30.32 in South 5.8 mph 5.8 mph 57% 0.00 in 32.0 W/m2 CLR
16:31 44.0 °F 29.7 °F 30.32 in SSW 3.5 mph 3.5 mph 57% 0.00 in 18.0 W/m2 CLR
16:36 44.0 °F 29.3 °F 30.32 in SSW 5.8 mph 5.8 mph 56% 0.00 in 12.0 W/m2 CLR
16:41 43.6 °F 29.4 °F 30.32 in South 4.6 mph 4.6 mph 57% 0.00 in 14.0 W/m2 CLR
16:46 43.4 °F 29.6 °F 30.32 in SSW 4.6 mph 4.6 mph 58% 0.00 in 16.0 W/m2 CLR
16:51 43.4 °F 29.6 °F 30.32 in South 3.5 mph 3.5 mph 58% 0.00 in 16.0 W/m2 CLR
16:56 43.4 °F 30.0 °F 30.33 in SSW 3.5 mph 3.5 mph 59% 0.00 in 16.0 W/m2 CLR
17:01 43.3 °F 29.5 °F 30.32 in South 4.6 mph 4.6 mph 58% 0.00 in 12.0 W/m2 CLR
17:06 43.3 °F 29.9 °F 30.32 in South 5.8 mph 5.8 mph 59% 0.00 in 11.0 W/m2 CLR
17:11 43.1 °F 29.7 °F 30.32 in South 4.0 mph 4.0 mph 59% 0.00 in 9.0 W/m2 CLR
17:16 42.9 °F 29.1 °F 30.32 in South 3.5 mph 3.5 mph 58% 0.00 in 9.0 W/m2 CLR
17:21 42.8 °F 29.9 °F 30.33 in South 1.2 mph 1.2 mph 60% 0.00 in 7.0 W/m2 CLR
17:26 42.3 °F 29.4 °F 30.33 in South 2.3 mph 2.3 mph 60% 0.00 in 7.0 W/m2 CLR
17:31 42.0 °F 29.5 °F 30.33 in SSE 4.6 mph 4.6 mph 61% 0.00 in 5.0 W/m2 CLR
17:36 41.6 °F 29.1 °F 30.33 in South 2.3 mph 2.3 mph 61% 0.00 in 0.0 W/m2 CLR
17:41 41.3 °F 28.9 °F 30.33 in South 3.5 mph 3.5 mph 61% 0.00 in 0.0 W/m2 CLR
17:46 41.1 °F 29.1 °F 30.32 in South 2.3 mph 2.3 mph 62% 0.00 in 0.0 W/m2 CLR
17:51 40.9 °F 28.9 °F 30.32 in South 2.3 mph 2.3 mph 62% 0.00 in 0.0 W/m2 CLR
17:56 40.5 °F 28.5 °F 30.32 in South 1.0 mph   62% 0.00 in 0.0 W/m2 CLR
18:01 39.9 °F 28.3 °F 30.32 in South 1.2 mph   63% 0.00 in 0.0 W/m2 CLR
18:06 39.3 °F 28.1 °F 30.33 in Calm     64% 0.00 in 0.0 W/m2 CLR
18:11 38.9 °F 28.1 °F 30.32 in Calm     65% 0.00 in 0.0 W/m2 CLR
18:16 38.6 °F 27.8 °F 30.32 in South 2.0 mph 2.0 mph 65% 0.00 in 0.0 W/m2 CLR
18:21 38.2 °F 27.8 °F 30.32 in Calm     66% 0.00 in 0.0 W/m2 CLR
18:26 38.0 °F 28.0 °F 30.32 in Calm     67% 0.00 in 0.0 W/m2 CLR
18:31 37.7 °F 28.1 °F 30.32 in South 1.2 mph 1.2 mph 68% 0.00 in 0.0 W/m2 CLR
18:36 37.5 °F 27.9 °F 30.32 in South 1.2 mph 1.2 mph 68% 0.00 in 0.0 W/m2 CLR
18:41 37.4 °F 28.2 °F 30.32 in South 1.2 mph 1.2 mph 69% 0.00 in 0.0 W/m2 CLR
18:46 37.3 °F 28.1 °F 30.33 in Calm     69% 0.00 in 0.0 W/m2 CLR
18:51 37.2 °F 28.0 °F 30.33 in Calm     69% 0.00 in 0.0 W/m2 CLR
18:56 36.8 °F 27.9 °F 30.33 in Calm     70% 0.00 in 0.0 W/m2 CLR
19:01 36.5 °F 27.6 °F 30.33 in South 1.2 mph   70% 0.00 in 0.0 W/m2 CLR
19:06 36.4 °F 27.9 °F 30.33 in South 1.2 mph 1.2 mph 71% 0.00 in 0.0 W/m2 CLR
19:11 36.7 °F 28.2 °F 30.33 in South 1.2 mph 1.2 mph 71% 0.00 in 0.0 W/m2 CLR
19:16 36.6 °F 28.1 °F 30.33 in Calm     71% 0.00 in 0.0 W/m2 CLR
19:21 36.5 °F 28.0 °F 30.33 in South 2.0 mph 2.0 mph 71% 0.00 in 0.0 W/m2 CLR
19:26 36.5 °F 28.3 °F 30.32 in South 2.3 mph 2.3 mph 72% 0.00 in 0.0 W/m2 CLR
19:31 36.4 °F 28.2 °F 30.32 in South 1.2 mph 1.2 mph 72% 0.00 in 0.0 W/m2 CLR
19:36 36.5 °F 28.3 °F 30.31 in South 2.3 mph 2.3 mph 72% 0.00 in 0.0 W/m2 CLR
19:41 36.4 °F 28.6 °F 30.31 in South 1.2 mph 1.2 mph 73% 0.00 in 0.0 W/m2 CLR
19:46 36.3 °F 28.5 °F 30.31 in South 4.6 mph 4.6 mph 73% 0.00 in 0.0 W/m2 CLR
19:51 36.3 °F 28.8 °F 30.31 in South 2.3 mph 2.3 mph 74% 0.00 in 0.0 W/m2 CLR
19:56 36.2 °F 28.7 °F 30.31 in South 1.2 mph 1.2 mph 74% 0.00 in 0.0 W/m2 CLR
20:01 36.0 °F 28.5 °F 30.31 in South 1.2 mph 1.2 mph 74% 0.00 in 0.0 W/m2 SCT
20:06 35.6 °F 28.1 °F 30.30 in South 1.2 mph   74% 0.00 in 0.0 W/m2 SCT
20:11 35.3 °F 28.2 °F 30.30 in South 1.2 mph 1.2 mph 75% 0.00 in 0.0 W/m2 SCT
20:16 35.4 °F 28.6 °F 30.30 in South 1.2 mph   76% 0.00 in 0.0 W/m2 SCT
20:21 35.4 °F 28.6 °F 30.30 in South 3.5 mph 3.5 mph 76% 0.00 in 0.0 W/m2 SCT
20:26 35.3 °F 28.5 °F 30.30 in South 1.0 mph   76% 0.00 in 0.0 W/m2 SCT
20:31 34.9 °F 27.8 °F 30.30 in Calm     75% 0.00 in 0.0 W/m2 SCT
20:36 34.7 °F 27.9 °F 30.30 in South 1.2 mph 1.2 mph 76% 0.00 in 0.0 W/m2 SCT
20:41 34.6 °F 28.1 °F 30.29 in South 1.2 mph 1.2 mph 77% 0.00 in 0.0 W/m2 SCT
20:47 34.6 °F 28.1 °F 30.29 in South 1.0 mph   77% 0.00 in 0.0 W/m2 SCT
20:51 34.7 °F 28.5 °F 30.28 in South 1.2 mph 1.2 mph 78% 0.00 in 0.0 W/m2 SCT
20:56 34.9 °F 28.7 °F 30.28 in Calm   0.1 mph 78% 0.00 in 0.0 W/m2 SCT
21:01 35.1 °F 29.2 °F 30.29 in South 1.2 mph   79% 0.00 in 0.0 W/m2 OVC
21:07 35.3 °F 29.4 °F 30.29 in Calm   0.1 mph 79% 0.00 in 0.0 W/m2 OVC
21:12 35.2 °F 29.0 °F 30.29 in Calm     78% 0.00 in 0.0 W/m2 OVC
21:17 35.1 °F 28.9 °F 30.29 in Calm     78% 0.00 in 0.0 W/m2 OVC
21:22 35.1 °F 28.9 °F 30.29 in Calm     78% 0.00 in 0.0 W/m2 OVC
21:27 35.5 °F 29.3 °F 30.29 in South 1.2 mph 1.2 mph 78% 0.00 in 0.0 W/m2 OVC
21:32 35.8 °F 29.3 °F 30.29 in Calm   0.1 mph 77% 0.00 in 0.0 W/m2 OVC
21:37 36.1 °F 29.3 °F 30.29 in South 2.3 mph 2.3 mph 76% 0.00 in 0.0 W/m2 OVC
21:42 36.4 °F 29.2 °F 30.29 in SSW 2.3 mph 2.3 mph 75% 0.00 in 0.0 W/m2 OVC
21:47 36.5 °F 29.3 °F 30.29 in SSW 2.3 mph 2.3 mph 75% 0.00 in 0.0 W/m2 OVC
21:52 36.5 °F 29.7 °F 30.29 in SSW 1.0 mph 1.0 mph 76% 0.00 in 0.0 W/m2 OVC
21:57 36.5 °F 29.7 °F 30.29 in SSW 1.2 mph 1.2 mph 76% 0.00 in 0.0 W/m2 OVC
22:02 36.6 °F 30.1 °F 30.29 in Calm     77% 0.00 in 0.0 W/m2 OVC
22:07 36.7 °F 30.2 °F 30.28 in SSW 1.2 mph 1.2 mph 77% 0.00 in 0.0 W/m2 OVC
22:12 37.0 °F 30.1 °F 30.28 in SSW 1.2 mph   76% 0.00 in 0.0 W/m2 OVC
22:17 37.3 °F 30.4 °F 30.28 in SSW 1.2 mph   76% 0.00 in 0.0 W/m2 OVC
22:22 37.4 °F 30.2 °F 30.28 in SSW 2.3 mph 2.3 mph 75% 0.00 in 0.0 W/m2 OVC
22:27 37.7 °F 30.2 °F 30.27 in Calm     74% 0.00 in 0.0 W/m2 OVC
22:32 37.9 °F 30.4 °F 30.27 in SSW 2.3 mph 2.3 mph 74% 0.00 in 0.0 W/m2 OVC
22:37 38.0 °F 31.1 °F 30.27 in SSW 1.0 mph   76% 0.00 in 0.0 W/m2 OVC
22:42 37.9 °F 31.3 °F 30.27 in Calm     77% 0.00 in 0.0 W/m2 OVC
22:47 37.7 °F 30.8 °F 30.27 in Calm     76% 0.00 in 0.0 W/m2 OVC
22:52 37.6 °F 30.7 °F 30.27 in Calm     76% 0.00 in 0.0 W/m2 OVC
22:57 37.8 °F 31.2 °F 30.28 in SSW 2.3 mph 2.3 mph 77% 0.00 in 0.0 W/m2 OVC
23:02 38.2 °F 31.3 °F 30.28 in SSW 2.3 mph 2.3 mph 76% 0.00 in 0.0 W/m2 OVC
23:07 38.4 °F 31.2 °F 30.27 in SSW 3.5 mph 3.5 mph 75% 0.00 in 0.0 W/m2 OVC
23:12 38.6 °F 31.0 °F 30.27 in South 3.5 mph 3.5 mph 74% 0.00 in 0.0 W/m2 OVC
23:17 38.9 °F 31.0 °F 30.27 in South 3.5 mph 3.5 mph 73% 0.00 in 0.0 W/m2 OVC
23:22 39.2 °F 30.9 °F 30.27 in South 3.5 mph 3.5 mph 72% 0.00 in 0.0 W/m2 OVC
23:27 39.5 °F 31.2 °F 30.27 in South 3.5 mph 3.5 mph 72% 0.00 in 0.0 W/m2 OVC
23:32 39.6 °F 31.3 °F 30.27 in South 5.8 mph 5.8 mph 72% 0.00 in 0.0 W/m2 OVC
23:37 39.6 °F 31.3 °F 30.27 in South 5.8 mph 5.8 mph 72% 0.00 in 0.0 W/m2 OVC
23:42 39.6 °F 31.7 °F 30.28 in South 3.5 mph 3.5 mph 73% 0.00 in 0.0 W/m2 OVC
23:47 39.4 °F 32.1 °F 30.28 in South 3.5 mph 3.5 mph 75% 0.00 in 0.0 W/m2 OVC
23:52 39.2 °F 32.6 °F 30.27 in South 2.3 mph 2.3 mph 77% 0.00 in 0.0 W/m2 OVC
23:57 39.1 °F 32.5 °F 30.27 in South 3.5 mph 3.5 mph 77% 0.00 in 0.0 W/m2 OVC
Fulton, MO, USA
Compliments of Weather Underground - 2.25 mb